sensor_id;sensor_type;location;lat;lon;timestamp;P1;durP1;ratioP1;P2;durP2;ratioP2
17496;SDS011;62150;43.582;1.456;2023-07-16T05:17:37;8.50;;;2.70;;
17496;SDS011;62150;43.582;1.456;2023-07-16T05:20:05;5.05;;;2.20;;
17496;SDS011;62150;43.582;1.456;2023-07-16T05:22:34;6.88;;;2.70;;
17496;SDS011;62150;43.582;1.456;2023-07-16T05:25:02;9.57;;;2.80;;
17496;SDS011;62150;43.582;1.456;2023-07-16T05:27:30;6.57;;;2.40;;
17496;SDS011;62150;43.582;1.456;2023-07-16T05:29:57;5.15;;;2.30;;
17496;SDS011;62150;43.582;1.456;2023-07-16T05:32:25;6.18;;;2.40;;
17496;SDS011;62150;43.582;1.456;2023-07-16T05:34:53;8.38;;;2.47;;
17496;SDS011;62150;43.582;1.456;2023-07-16T05:37:21;8.02;;;2.58;;
17496;SDS011;62150;43.582;1.456;2023-07-16T05:39:48;7.30;;;2.63;;
17496;SDS011;62150;43.582;1.456;2023-07-16T05:42:16;7.95;;;2.65;;
17496;SDS011;62150;43.582;1.456;2023-07-16T05:44:43;8.90;;;2.42;;
17496;SDS011;62150;43.582;1.456;2023-07-16T05:47:13;8.57;;;2.38;;
17496;SDS011;62150;43.582;1.456;2023-07-16T05:49:40;7.07;;;2.60;;
17496;SDS011;62150;43.582;1.456;2023-07-16T05:52:09;8.93;;;2.72;;
17496;SDS011;62150;43.582;1.456;2023-07-16T05:54:37;9.10;;;2.60;;
17496;SDS011;62150;43.582;1.456;2023-07-16T05:57:05;8.10;;;2.70;;
17496;SDS011;62150;43.582;1.456;2023-07-16T05:59:32;8.85;;;2.47;;
17496;SDS011;62150;43.582;1.456;2023-07-16T06:02:03;7.88;;;2.53;;
17496;SDS011;62150;43.582;1.456;2023-07-16T06:04:31;7.90;;;2.70;;
17496;SDS011;62150;43.582;1.456;2023-07-16T06:06:58;9.38;;;2.45;;
17496;SDS011;62150;43.582;1.456;2023-07-16T06:09:27;6.03;;;2.42;;
17496;SDS011;62150;43.582;1.456;2023-07-16T06:11:54;8.25;;;2.70;;
17496;SDS011;62150;43.582;1.456;2023-07-16T06:14:22;8.18;;;2.83;;
17496;SDS011;62150;43.582;1.456;2023-07-16T06:16:50;8.43;;;2.70;;
17496;SDS011;62150;43.582;1.456;2023-07-16T06:19:17;7.90;;;2.42;;
17496;SDS011;62150;43.582;1.456;2023-07-16T06:21:45;7.15;;;2.45;;
17496;SDS011;62150;43.582;1.456;2023-07-16T06:24:12;9.00;;;2.55;;
17496;SDS011;62150;43.582;1.456;2023-07-16T06:26:41;8.65;;;2.63;;
17496;SDS011;62150;43.582;1.456;2023-07-16T06:29:09;7.20;;;2.40;;
17496;SDS011;62150;43.582;1.456;2023-07-16T06:31:37;8.68;;;2.70;;
17496;SDS011;62150;43.582;1.456;2023-07-16T06:34:04;6.80;;;2.65;;
17496;SDS011;62150;43.582;1.456;2023-07-16T06:36:31;9.20;;;2.60;;
17496;SDS011;62150;43.582;1.456;2023-07-16T06:38:59;7.47;;;2.30;;
17496;SDS011;62150;43.582;1.456;2023-07-16T06:41:26;9.68;;;2.75;;
17496;SDS011;62150;43.582;1.456;2023-07-16T06:43:56;8.38;;;2.58;;
17496;SDS011;62150;43.582;1.456;2023-07-16T06:46:24;8.07;;;2.47;;
17496;SDS011;62150;43.582;1.456;2023-07-16T06:48:51;7.72;;;2.70;;
17496;SDS011;62150;43.582;1.456;2023-07-16T06:51:19;7.32;;;2.47;;
17496;SDS011;62150;43.582;1.456;2023-07-16T06:53:46;4.82;;;2.30;;
17496;SDS011;62150;43.582;1.456;2023-07-16T06:56:14;10.07;;;2.80;;
17496;SDS011;62150;43.582;1.456;2023-07-16T06:58:41;8.65;;;2.30;;
17496;SDS011;62150;43.582;1.456;2023-07-16T07:01:11;8.52;;;2.45;;
17496;SDS011;62150;43.582;1.456;2023-07-16T07:03:38;10.40;;;3.20;;
17496;SDS011;62150;43.582;1.456;2023-07-16T07:06:06;8.13;;;2.45;;
17496;SDS011;62150;43.582;1.456;2023-07-16T07:08:35;8.77;;;2.90;;
17496;SDS011;62150;43.582;1.456;2023-07-16T07:11:03;12.25;;;2.83;;
17496;SDS011;62150;43.582;1.456;2023-07-16T07:13:31;7.07;;;2.22;;
17496;SDS011;62150;43.582;1.456;2023-07-16T07:15:58;7.10;;;2.38;;
17496;SDS011;62150;43.582;1.456;2023-07-16T07:18:27;7.55;;;2.30;;
17496;SDS011;62150;43.582;1.456;2023-07-16T07:20:54;9.38;;;2.50;;
17496;SDS011;62150;43.582;1.456;2023-07-16T07:23:22;6.55;;;2.35;;
17496;SDS011;62150;43.582;1.456;2023-07-16T07:25:49;7.85;;;2.60;;
17496;SDS011;62150;43.582;1.456;2023-07-16T07:28:18;8.85;;;2.38;;
17496;SDS011;62150;43.582;1.456;2023-07-16T07:30:46;8.52;;;2.47;;
17496;SDS011;62150;43.582;1.456;2023-07-16T07:33:13;8.90;;;2.33;;
17496;SDS011;62150;43.582;1.456;2023-07-16T07:35:44;10.13;;;3.35;;
17496;SDS011;62150;43.582;1.456;2023-07-16T07:38:12;10.00;;;2.47;;
17496;SDS011;62150;43.582;1.456;2023-07-16T07:40:39;7.90;;;2.40;;
17496;SDS011;62150;43.582;1.456;2023-07-16T07:43:09;8.57;;;2.45;;
17496;SDS011;62150;43.582;1.456;2023-07-16T07:45:37;8.27;;;2.47;;
17496;SDS011;62150;43.582;1.456;2023-07-16T07:48:04;7.70;;;2.22;;
17496;SDS011;62150;43.582;1.456;2023-07-16T07:50:32;9.50;;;2.42;;
17496;SDS011;62150;43.582;1.456;2023-07-16T07:53:01;7.15;;;2.40;;
17496;SDS011;62150;43.582;1.456;2023-07-16T07:55:28;6.25;;;2.00;;
17496;SDS011;62150;43.582;1.456;2023-07-16T07:57:56;8.70;;;2.17;;
17496;SDS011;62150;43.582;1.456;2023-07-16T08:00:26;8.35;;;2.22;;
17496;SDS011;62150;43.582;1.456;2023-07-16T08:02:53;7.38;;;2.42;;
17496;SDS011;62150;43.582;1.456;2023-07-16T08:05:21;9.38;;;2.53;;
17496;SDS011;62150;43.582;1.456;2023-07-16T08:07:49;6.22;;;2.25;;
17496;SDS011;62150;43.582;1.456;2023-07-16T08:10:18;6.80;;;2.30;;
17496;SDS011;62150;43.582;1.456;2023-07-16T08:12:46;7.47;;;1.90;;
17496;SDS011;62150;43.582;1.456;2023-07-16T08:15:13;5.80;;;2.00;;
17496;SDS011;62150;43.582;1.456;2023-07-16T08:17:41;6.07;;;2.10;;
17496;SDS011;62150;43.582;1.456;2023-07-16T08:20:09;5.22;;;2.00;;
17496;SDS011;62150;43.582;1.456;2023-07-16T08:22:38;8.43;;;2.30;;
17496;SDS011;62150;43.582;1.456;2023-07-16T08:25:06;6.10;;;1.90;;
17496;SDS011;62150;43.582;1.456;2023-07-16T08:27:36;8.15;;;2.20;;
17496;SDS011;62150;43.582;1.456;2023-07-16T08:30:04;7.13;;;2.03;;
17496;SDS011;62150;43.582;1.456;2023-07-16T08:32:33;5.03;;;2.05;;
17496;SDS011;62150;43.582;1.456;2023-07-16T08:35:00;5.80;;;2.13;;
17496;SDS011;62150;43.582;1.456;2023-07-16T08:37:28;6.50;;;2.20;;
17496;SDS011;62150;43.582;1.456;2023-07-16T08:39:56;6.65;;;2.20;;
17496;SDS011;62150;43.582;1.456;2023-07-16T08:42:23;8.80;;;2.20;;
17496;SDS011;62150;43.582;1.456;2023-07-16T08:44:52;6.75;;;2.10;;
17496;SDS011;62150;43.582;1.456;2023-07-16T08:47:20;6.03;;;2.05;;
17496;SDS011;62150;43.582;1.456;2023-07-16T08:49:50;5.93;;;2.10;;
17496;SDS011;62150;43.582;1.456;2023-07-16T08:52:22;5.78;;;1.75;;
17496;SDS011;62150;43.582;1.456;2023-07-16T08:54:49;5.88;;;2.00;;
17496;SDS011;62150;43.582;1.456;2023-07-16T08:57:17;7.03;;;2.17;;
17496;SDS011;62150;43.582;1.456;2023-07-16T08:59:47;5.63;;;2.30;;
17496;SDS011;62150;43.582;1.456;2023-07-16T09:02:17;6.60;;;2.30;;
17496;SDS011;62150;43.582;1.456;2023-07-16T09:04:46;6.20;;;2.00;;
17496;SDS011;62150;43.582;1.456;2023-07-16T09:07:14;7.82;;;2.40;;
17496;SDS011;62150;43.582;1.456;2023-07-16T09:09:41;6.95;;;2.30;;
17496;SDS011;62150;43.582;1.456;2023-07-16T09:12:11;6.65;;;2.05;;
17496;SDS011;62150;43.582;1.456;2023-07-16T09:14:41;6.13;;;1.90;;
17496;SDS011;62150;43.582;1.456;2023-07-16T09:17:10;5.38;;;2.00;;
17496;SDS011;62150;43.582;1.456;2023-07-16T09:19:39;8.80;;;2.40;;
17496;SDS011;62150;43.582;1.456;2023-07-16T09:22:08;4.95;;;2.10;;
17496;SDS011;62150;43.582;1.456;2023-07-16T09:24:36;5.57;;;1.88;;
17496;SDS011;62150;43.582;1.456;2023-07-16T09:27:03;6.60;;;2.05;;
17496;SDS011;62150;43.582;1.456;2023-07-16T09:29:31;5.82;;;2.08;;
17496;SDS011;62150;43.582;1.456;2023-07-16T09:31:59;8.02;;;2.40;;
17496;SDS011;62150;43.582;1.456;2023-07-16T09:34:28;7.60;;;2.20;;
17496;SDS011;62150;43.582;1.456;2023-07-16T09:36:58;5.85;;;2.10;;
17496;SDS011;62150;43.582;1.456;2023-07-16T09:39:27;4.47;;;1.98;;
17496;SDS011;62150;43.582;1.456;2023-07-16T09:41:54;4.75;;;1.98;;
17496;SDS011;62150;43.582;1.456;2023-07-16T09:44:22;5.70;;;2.28;;
17496;SDS011;62150;43.582;1.456;2023-07-16T09:46:50;6.40;;;2.10;;
17496;SDS011;62150;43.582;1.456;2023-07-16T09:49:20;6.40;;;2.20;;
17496;SDS011;62150;43.582;1.456;2023-07-16T09:51:48;6.00;;;2.20;;
17496;SDS011;62150;43.582;1.456;2023-07-16T09:54:19;5.93;;;2.10;;
17496;SDS011;62150;43.582;1.456;2023-07-16T09:56:49;6.50;;;2.00;;
17496;SDS011;62150;43.582;1.456;2023-07-16T09:59:21;6.65;;;2.15;;
17496;SDS011;62150;43.582;1.456;2023-07-16T10:01:51;6.32;;;1.90;;
17496;SDS011;62150;43.582;1.456;2023-07-16T10:04:21;6.10;;;2.13;;
17496;SDS011;62150;43.582;1.456;2023-07-16T10:06:49;6.22;;;2.15;;
17496;SDS011;62150;43.582;1.456;2023-07-16T10:09:38;6.03;;;2.30;;
17496;SDS011;62150;43.582;1.456;2023-07-16T10:12:13;5.50;;;1.90;;
17496;SDS011;62150;43.582;1.456;2023-07-16T10:14:43;4.53;;;1.90;;
17496;SDS011;62150;43.582;1.456;2023-07-16T10:17:12;5.88;;;2.40;;
17496;SDS011;62150;43.582;1.456;2023-07-16T10:19:51;6.47;;;2.00;;
17496;SDS011;62150;43.582;1.456;2023-07-16T10:22:36;6.20;;;2.00;;
17496;SDS011;62150;43.582;1.456;2023-07-16T10:25:08;7.70;;;1.95;;
17496;SDS011;62150;43.582;1.456;2023-07-16T10:27:37;8.38;;;2.22;;
17496;SDS011;62150;43.582;1.456;2023-07-16T10:30:07;6.68;;;2.40;;
17496;SDS011;62150;43.582;1.456;2023-07-16T10:32:35;4.40;;;1.90;;
17496;SDS011;62150;43.582;1.456;2023-07-16T10:35:03;7.13;;;2.13;;
17496;SDS011;62150;43.582;1.456;2023-07-16T10:37:32;7.18;;;2.20;;
17496;SDS011;62150;43.582;1.456;2023-07-16T10:40:00;3.75;;;2.00;;
17496;SDS011;62150;43.582;1.456;2023-07-16T10:42:31;4.80;;;1.80;;
17496;SDS011;62150;43.582;1.456;2023-07-16T10:44:59;8.35;;;2.78;;
17496;SDS011;62150;43.582;1.456;2023-07-16T10:47:30;5.97;;;2.25;;
17496;SDS011;62150;43.582;1.456;2023-07-16T10:49:58;6.25;;;2.13;;
17496;SDS011;62150;43.582;1.456;2023-07-16T10:52:29;6.07;;;2.25;;
17496;SDS011;62150;43.582;1.456;2023-07-16T10:54:56;6.40;;;2.28;;
17496;SDS011;62150;43.582;1.456;2023-07-16T10:57:24;7.35;;;2.30;;
17496;SDS011;62150;43.582;1.456;2023-07-16T10:59:54;5.22;;;2.17;;
17496;SDS011;62150;43.582;1.456;2023-07-16T11:02:23;4.15;;;2.00;;
17496;SDS011;62150;43.582;1.456;2023-07-16T11:04:52;5.55;;;2.10;;
17496;SDS011;62150;43.582;1.456;2023-07-16T11:07:22;5.85;;;2.13;;
17496;SDS011;62150;43.582;1.456;2023-07-16T11:09:50;5.50;;;2.13;;
17496;SDS011;62150;43.582;1.456;2023-07-16T11:12:20;6.43;;;2.15;;
17496;SDS011;62150;43.582;1.456;2023-07-16T11:14:49;5.60;;;2.10;;
17496;SDS011;62150;43.582;1.456;2023-07-16T11:17:19;4.90;;;1.90;;
17496;SDS011;62150;43.582;1.456;2023-07-16T11:19:49;5.32;;;2.13;;
17496;SDS011;62150;43.582;1.456;2023-07-16T11:22:18;7.10;;;2.42;;
17496;SDS011;62150;43.582;1.456;2023-07-16T11:24:46;4.80;;;2.10;;
17496;SDS011;62150;43.582;1.456;2023-07-16T11:27:14;6.40;;;2.28;;
17496;SDS011;62150;43.582;1.456;2023-07-16T11:29:46;5.85;;;2.20;;
17496;SDS011;62150;43.582;1.456;2023-07-16T11:32:26;3.42;;;1.83;;
17496;SDS011;62150;43.582;1.456;2023-07-16T11:34:55;5.88;;;2.05;;
17496;SDS011;62150;43.582;1.456;2023-07-16T11:37:24;4.13;;;2.05;;
17496;SDS011;62150;43.582;1.456;2023-07-16T11:39:55;5.35;;;2.20;;
17496;SDS011;62150;43.582;1.456;2023-07-16T11:42:23;4.65;;;2.10;;
17496;SDS011;62150;43.582;1.456;2023-07-16T11:44:54;5.43;;;2.20;;
17496;SDS011;62150;43.582;1.456;2023-07-16T11:47:22;7.05;;;2.50;;
17496;SDS011;62150;43.582;1.456;2023-07-16T11:49:51;5.05;;;2.13;;
17496;SDS011;62150;43.582;1.456;2023-07-16T11:52:19;3.38;;;1.70;;
17496;SDS011;62150;43.582;1.456;2023-07-16T11:54:47;5.50;;;2.03;;
17496;SDS011;62150;43.582;1.456;2023-07-16T11:57:15;4.97;;;2.13;;
17496;SDS011;62150;43.582;1.456;2023-07-16T11:59:42;6.28;;;2.30;;
17496;SDS011;62150;43.582;1.456;2023-07-16T12:02:10;4.97;;;1.98;;
17496;SDS011;62150;43.582;1.456;2023-07-16T12:04:38;4.65;;;2.03;;
17496;SDS011;62150;43.582;1.456;2023-07-16T12:07:07;4.60;;;1.90;;
17496;SDS011;62150;43.582;1.456;2023-07-16T12:09:34;6.53;;;2.20;;
17496;SDS011;62150;43.582;1.456;2023-07-16T12:12:02;5.43;;;2.10;;
17496;SDS011;62150;43.582;1.456;2023-07-16T12:14:30;7.10;;;2.28;;
17496;SDS011;62150;43.582;1.456;2023-07-16T12:16:58;3.78;;;2.00;;
17496;SDS011;62150;43.582;1.456;2023-07-16T12:19:26;5.93;;;2.10;;
17496;SDS011;62150;43.582;1.456;2023-07-16T12:21:53;7.05;;;2.50;;
17496;SDS011;62150;43.582;1.456;2023-07-16T12:24:26;6.10;;;3.00;;
17496;SDS011;62150;43.582;1.456;2023-07-16T12:26:53;5.47;;;2.45;;
17496;SDS011;62150;43.582;1.456;2023-07-16T12:29:20;6.05;;;2.40;;
17496;SDS011;62150;43.582;1.456;2023-07-16T12:31:48;4.85;;;2.35;;
17496;SDS011;62150;43.582;1.456;2023-07-16T12:34:16;5.90;;;2.22;;
17496;SDS011;62150;43.582;1.456;2023-07-16T12:36:43;6.00;;;2.20;;
17496;SDS011;62150;43.582;1.456;2023-07-16T12:39:11;6.60;;;2.30;;
17496;SDS011;62150;43.582;1.456;2023-07-16T12:41:40;6.10;;;2.30;;
17496;SDS011;62150;43.582;1.456;2023-07-16T12:44:08;6.53;;;2.20;;
17496;SDS011;62150;43.582;1.456;2023-07-16T12:46:35;7.10;;;2.30;;
17496;SDS011;62150;43.582;1.456;2023-07-16T12:49:02;8.32;;;2.50;;
17496;SDS011;62150;43.582;1.456;2023-07-16T12:51:30;7.13;;;2.45;;
17496;SDS011;62150;43.582;1.456;2023-07-16T12:53:58;5.60;;;2.10;;
17496;SDS011;62150;43.582;1.456;2023-07-16T12:56:26;6.30;;;2.28;;
17496;SDS011;62150;43.582;1.456;2023-07-16T12:58:59;4.22;;;2.20;;
17496;SDS011;62150;43.582;1.456;2023-07-16T13:01:28;7.15;;;2.30;;
17496;SDS011;62150;43.582;1.456;2023-07-16T13:03:56;5.70;;;2.05;;
17496;SDS011;62150;43.582;1.456;2023-07-16T13:06:24;4.85;;;1.90;;
17496;SDS011;62150;43.582;1.456;2023-07-16T13:08:52;5.85;;;2.10;;
17496;SDS011;62150;43.582;1.456;2023-07-16T13:11:22;5.78;;;2.10;;
17496;SDS011;62150;43.582;1.456;2023-07-16T13:13:50;7.32;;;2.30;;
17496;SDS011;62150;43.582;1.456;2023-07-16T13:16:19;4.57;;;1.98;;
17496;SDS011;62150;43.582;1.456;2023-07-16T13:18:46;6.32;;;2.17;;
17496;SDS011;62150;43.582;1.456;2023-07-16T13:21:14;4.90;;;2.00;;
17496;SDS011;62150;43.582;1.456;2023-07-16T13:23:41;6.53;;;2.20;;
17496;SDS011;62150;43.582;1.456;2023-07-16T13:26:09;4.22;;;2.00;;
17496;SDS011;62150;43.582;1.456;2023-07-16T13:28:40;6.40;;;2.20;;
17496;SDS011;62150;43.582;1.456;2023-07-16T13:31:07;4.20;;;2.35;;
17496;SDS011;62150;43.582;1.456;2023-07-16T13:33:41;4.03;;;2.17;;
17496;SDS011;62150;43.582;1.456;2023-07-16T13:36:09;6.88;;;2.20;;
17496;SDS011;62150;43.582;1.456;2023-07-16T13:38:36;5.43;;;2.13;;
17496;SDS011;62150;43.582;1.456;2023-07-16T13:41:04;6.50;;;2.22;;
17496;SDS011;62150;43.582;1.456;2023-07-16T13:43:31;6.85;;;2.40;;
17496;SDS011;62150;43.582;1.456;2023-07-16T13:45:59;6.22;;;2.25;;
17496;SDS011;62150;43.582;1.456;2023-07-16T13:48:26;7.15;;;2.15;;
17496;SDS011;62150;43.582;1.456;2023-07-16T13:50:55;5.78;;;2.10;;
17496;SDS011;62150;43.582;1.456;2023-07-16T13:53:23;5.40;;;2.13;;
17496;SDS011;62150;43.582;1.456;2023-07-16T13:55:50;6.30;;;2.45;;
17496;SDS011;62150;43.582;1.456;2023-07-16T13:58:18;6.35;;;2.10;;
17496;SDS011;62150;43.582;1.456;2023-07-16T14:00:46;5.65;;;2.20;;
17496;SDS011;62150;43.582;1.456;2023-07-16T14:03:13;5.93;;;2.20;;
17496;SDS011;62150;43.582;1.456;2023-07-16T14:05:41;5.82;;;1.98;;
17496;SDS011;62150;43.582;1.456;2023-07-16T14:08:10;4.32;;;2.05;;
17496;SDS011;62150;43.582;1.456;2023-07-16T14:10:39;5.13;;;2.00;;
17496;SDS011;62150;43.582;1.456;2023-07-16T14:13:07;4.72;;;2.17;;
17496;SDS011;62150;43.582;1.456;2023-07-16T14:15:35;5.38;;;2.20;;
17496;SDS011;62150;43.582;1.456;2023-07-16T14:18:02;4.25;;;2.20;;
17496;SDS011;62150;43.582;1.456;2023-07-16T14:20:30;5.85;;;2.42;;
17496;SDS011;62150;43.582;1.456;2023-07-16T14:22:57;5.18;;;2.20;;
17496;SDS011;62150;43.582;1.456;2023-07-16T14:25:26;4.32;;;2.25;;
17496;SDS011;62150;43.582;1.456;2023-07-16T14:27:54;5.90;;;2.38;;
17496;SDS011;62150;43.582;1.456;2023-07-16T14:30:21;5.55;;;2.38;;
17496;SDS011;62150;43.582;1.456;2023-07-16T14:32:49;5.30;;;2.10;;
17496;SDS011;62150;43.582;1.456;2023-07-16T14:35:16;4.35;;;2.30;;
17496;SDS011;62150;43.582;1.456;2023-07-16T14:37:46;5.78;;;2.20;;
17496;SDS011;62150;43.582;1.456;2023-07-16T14:40:14;5.32;;;2.20;;
17496;SDS011;62150;43.582;1.456;2023-07-16T14:42:44;5.75;;;2.13;;
17496;SDS011;62150;43.582;1.456;2023-07-16T14:45:12;4.30;;;1.95;;
17496;SDS011;62150;43.582;1.456;2023-07-16T14:47:40;3.72;;;1.90;;
17496;SDS011;62150;43.582;1.456;2023-07-16T14:50:08;5.50;;;2.22;;
17496;SDS011;62150;43.582;1.456;2023-07-16T14:52:36;4.05;;;2.05;;
17496;SDS011;62150;43.582;1.456;2023-07-16T14:55:05;5.32;;;2.05;;
17496;SDS011;62150;43.582;1.456;2023-07-16T14:57:33;4.75;;;2.22;;
17496;SDS011;62150;43.582;1.456;2023-07-16T15:00:02;3.50;;;2.20;;
17496;SDS011;62150;43.582;1.456;2023-07-16T15:02:32;6.03;;;2.28;;
17496;SDS011;62150;43.582;1.456;2023-07-16T15:05:00;6.43;;;2.20;;
17496;SDS011;62150;43.582;1.456;2023-07-16T15:07:27;6.00;;;2.17;;
17496;SDS011;62150;43.582;1.456;2023-07-16T15:09:55;5.72;;;2.40;;
17496;SDS011;62150;43.582;1.456;2023-07-16T15:12:22;7.03;;;2.38;;
17496;SDS011;62150;43.582;1.456;2023-07-16T15:14:51;5.10;;;2.20;;
17496;SDS011;62150;43.582;1.456;2023-07-16T15:17:20;4.85;;;2.20;;
17496;SDS011;62150;43.582;1.456;2023-07-16T15:19:48;5.70;;;2.38;;
17496;SDS011;62150;43.582;1.456;2023-07-16T15:22:15;6.22;;;2.60;;
17496;SDS011;62150;43.582;1.456;2023-07-16T15:24:45;5.05;;;2.20;;
17496;SDS011;62150;43.582;1.456;2023-07-16T15:27:13;4.95;;;2.40;;
17496;SDS011;62150;43.582;1.456;2023-07-16T15:29:40;5.22;;;2.40;;
17496;SDS011;62150;43.582;1.456;2023-07-16T15:32:08;5.03;;;2.30;;
17496;SDS011;62150;43.582;1.456;2023-07-16T15:34:37;5.47;;;2.28;;
17496;SDS011;62150;43.582;1.456;2023-07-16T15:37:06;6.40;;;2.72;;
17496;SDS011;62150;43.582;1.456;2023-07-16T15:39:35;5.47;;;2.20;;
17496;SDS011;62150;43.582;1.456;2023-07-16T15:42:03;5.10;;;2.38;;
17496;SDS011;62150;43.582;1.456;2023-07-16T15:44:31;6.88;;;2.40;;
17496;SDS011;62150;43.582;1.456;2023-07-16T15:46:59;5.65;;;2.22;;
17496;SDS011;62150;43.582;1.456;2023-07-16T15:49:27;6.10;;;2.40;;
17496;SDS011;62150;43.582;1.456;2023-07-16T15:51:56;7.55;;;2.70;;
17496;SDS011;62150;43.582;1.456;2023-07-16T15:54:24;4.82;;;2.42;;
17496;SDS011;62150;43.582;1.456;2023-07-16T15:56:51;6.70;;;2.47;;
17496;SDS011;62150;43.582;1.456;2023-07-16T15:59:19;5.57;;;2.38;;
17496;SDS011;62150;43.582;1.456;2023-07-16T16:01:46;6.55;;;2.50;;
17496;SDS011;62150;43.582;1.456;2023-07-16T16:04:14;6.35;;;2.15;;
17496;SDS011;62150;43.582;1.456;2023-07-16T16:06:45;6.03;;;2.35;;
17496;SDS011;62150;43.582;1.456;2023-07-16T16:09:21;4.43;;;2.40;;
17496;SDS011;62150;43.582;1.456;2023-07-16T16:11:49;5.90;;;2.35;;
17496;SDS011;62150;43.582;1.456;2023-07-16T16:14:17;5.80;;;2.40;;
17496;SDS011;62150;43.582;1.456;2023-07-16T16:16:44;5.80;;;2.42;;
17496;SDS011;62150;43.582;1.456;2023-07-16T16:19:12;5.15;;;2.67;;
17496;SDS011;62150;43.582;1.456;2023-07-16T16:21:39;5.20;;;2.47;;
17496;SDS011;62150;43.582;1.456;2023-07-16T16:24:07;6.80;;;2.40;;
17496;SDS011;62150;43.582;1.456;2023-07-16T16:26:36;6.22;;;2.55;;
17496;SDS011;62150;43.582;1.456;2023-07-16T16:29:03;6.15;;;2.35;;
17496;SDS011;62150;43.582;1.456;2023-07-16T16:31:34;7.43;;;2.40;;
17496;SDS011;62150;43.582;1.456;2023-07-16T16:34:02;7.28;;;2.70;;
17496;SDS011;62150;43.582;1.456;2023-07-16T16:36:30;5.18;;;2.35;;
17496;SDS011;62150;43.582;1.456;2023-07-16T16:38:57;4.90;;;2.40;;
17496;SDS011;62150;43.582;1.456;2023-07-16T16:41:25;6.07;;;2.55;;
17496;SDS011;62150;43.582;1.456;2023-07-16T16:43:54;5.88;;;2.53;;
17496;SDS011;62150;43.582;1.456;2023-07-16T16:46:22;5.00;;;2.30;;
17496;SDS011;62150;43.582;1.456;2023-07-16T16:48:49;5.68;;;2.55;;
17496;SDS011;62150;43.582;1.456;2023-07-16T16:51:16;5.78;;;2.50;;
17496;SDS011;62150;43.582;1.456;2023-07-16T16:53:44;5.07;;;2.50;;
17496;SDS011;62150;43.582;1.456;2023-07-16T16:56:11;5.20;;;2.47;;
17496;SDS011;62150;43.582;1.456;2023-07-16T16:58:39;6.88;;;2.67;;
17496;SDS011;62150;43.582;1.456;2023-07-16T17:01:08;5.05;;;2.58;;
17496;SDS011;62150;43.582;1.456;2023-07-16T17:03:36;6.15;;;2.40;;
17496;SDS011;62150;43.582;1.456;2023-07-16T17:06:03;5.95;;;2.40;;
17496;SDS011;62150;43.582;1.456;2023-07-16T17:08:31;6.70;;;2.60;;
17496;SDS011;62150;43.582;1.456;2023-07-16T17:10:59;5.55;;;2.50;;
17496;SDS011;62150;43.582;1.456;2023-07-16T17:13:26;5.20;;;2.20;;
17496;SDS011;62150;43.582;1.456;2023-07-16T17:15:54;5.03;;;2.30;;
17496;SDS011;62150;43.582;1.456;2023-07-16T17:18:23;6.95;;;2.40;;
17496;SDS011;62150;43.582;1.456;2023-07-16T17:20:51;5.40;;;2.40;;
17496;SDS011;62150;43.582;1.456;2023-07-16T17:23:19;4.70;;;2.47;;
17496;SDS011;62150;43.582;1.456;2023-07-16T17:25:46;4.95;;;2.60;;
17496;SDS011;62150;43.582;1.456;2023-07-16T17:28:14;4.45;;;2.40;;
17496;SDS011;62150;43.582;1.456;2023-07-16T17:30:42;6.05;;;2.40;;
17496;SDS011;62150;43.582;1.456;2023-07-16T17:33:09;5.80;;;2.60;;
17496;SDS011;62150;43.582;1.456;2023-07-16T17:35:38;5.40;;;2.40;;
17496;SDS011;62150;43.582;1.456;2023-07-16T17:38:06;5.93;;;2.60;;
17496;SDS011;62150;43.582;1.456;2023-07-16T17:40:33;6.75;;;2.65;;
17496;SDS011;62150;43.582;1.456;2023-07-16T17:43:01;4.63;;;2.55;;
17496;SDS011;62150;43.582;1.456;2023-07-16T17:45:28;5.90;;;2.63;;
17496;SDS011;62150;43.582;1.456;2023-07-16T17:47:56;7.20;;;2.75;;
17496;SDS011;62150;43.582;1.456;2023-07-16T17:50:24;6.55;;;2.60;;
17496;SDS011;62150;43.582;1.456;2023-07-16T17:52:53;8.40;;;2.75;;
17496;SDS011;62150;43.582;1.456;2023-07-16T17:55:20;6.65;;;2.75;;
17496;SDS011;62150;43.582;1.456;2023-07-16T17:57:48;7.70;;;2.88;;
17496;SDS011;62150;43.582;1.456;2023-07-16T18:00:15;7.53;;;2.75;;
17496;SDS011;62150;43.582;1.456;2023-07-16T18:02:44;5.25;;;2.53;;
17496;SDS011;62150;43.582;1.456;2023-07-16T18:05:11;5.90;;;2.90;;
17496;SDS011;62150;43.582;1.456;2023-07-16T18:07:39;6.95;;;2.70;;
17496;SDS011;62150;43.582;1.456;2023-07-16T18:10:08;7.43;;;2.70;;
17496;SDS011;62150;43.582;1.456;2023-07-16T18:12:36;6.40;;;2.60;;
17496;SDS011;62150;43.582;1.456;2023-07-16T18:15:04;6.60;;;2.72;;
17496;SDS011;62150;43.582;1.456;2023-07-16T18:17:32;5.45;;;2.63;;
17496;SDS011;62150;43.582;1.456;2023-07-16T18:20:00;6.38;;;2.95;;
17496;SDS011;62150;43.582;1.456;2023-07-16T18:22:30;6.80;;;2.88;;
17496;SDS011;62150;43.582;1.456;2023-07-16T18:24:57;7.38;;;2.85;;
17496;SDS011;62150;43.582;1.456;2023-07-16T18:27:31;6.55;;;2.90;;
17496;SDS011;62150;43.582;1.456;2023-07-16T18:29:59;6.80;;;2.85;;
17496;SDS011;62150;43.582;1.456;2023-07-16T18:32:28;6.18;;;2.50;;
17496;SDS011;62150;43.582;1.456;2023-07-16T18:34:55;6.18;;;2.70;;
17496;SDS011;62150;43.582;1.456;2023-07-16T18:37:24;7.05;;;2.88;;
17496;SDS011;62150;43.582;1.456;2023-07-16T18:39:52;6.30;;;2.70;;
17496;SDS011;62150;43.582;1.456;2023-07-16T18:42:20;6.75;;;2.80;;
17496;SDS011;62150;43.582;1.456;2023-07-16T18:44:51;5.82;;;2.72;;
17496;SDS011;62150;43.582;1.456;2023-07-16T18:47:27;7.40;;;3.00;;
17496;SDS011;62150;43.582;1.456;2023-07-16T18:49:55;5.88;;;2.80;;
17496;SDS011;62150;43.582;1.456;2023-07-16T18:52:23;7.00;;;2.70;;
17496;SDS011;62150;43.582;1.456;2023-07-16T18:54:51;7.85;;;3.00;;
17496;SDS011;62150;43.582;1.456;2023-07-16T18:57:20;6.65;;;2.88;;
17496;SDS011;62150;43.582;1.456;2023-07-16T18:59:49;7.30;;;3.00;;
17496;SDS011;62150;43.582;1.456;2023-07-16T19:02:18;6.90;;;2.80;;
17496;SDS011;62150;43.582;1.456;2023-07-16T19:04:45;7.80;;;3.00;;
17496;SDS011;62150;43.582;1.456;2023-07-16T19:07:13;7.30;;;3.10;;
17496;SDS011;62150;43.582;1.456;2023-07-16T19:09:40;5.57;;;2.92;;
17496;SDS011;62150;43.582;1.456;2023-07-16T19:12:08;8.23;;;3.15;;
17496;SDS011;62150;43.582;1.456;2023-07-16T19:14:35;7.35;;;2.97;;
17496;SDS011;62150;43.582;1.456;2023-07-16T19:17:05;6.07;;;2.80;;
17496;SDS011;62150;43.582;1.456;2023-07-16T19:19:42;5.90;;;2.95;;
17496;SDS011;62150;43.582;1.456;2023-07-16T19:22:10;6.07;;;2.75;;
17496;SDS011;62150;43.582;1.456;2023-07-16T19:24:37;6.70;;;3.03;;
17496;SDS011;62150;43.582;1.456;2023-07-16T19:27:05;8.48;;;3.17;;
17496;SDS011;62150;43.582;1.456;2023-07-16T19:29:33;6.32;;;2.83;;
17496;SDS011;62150;43.582;1.456;2023-07-16T19:32:01;7.35;;;2.80;;
17496;SDS011;62150;43.582;1.456;2023-07-16T19:34:30;6.93;;;2.65;;
17496;SDS011;62150;43.582;1.456;2023-07-16T19:36:58;9.27;;;3.00;;
17496;SDS011;62150;43.582;1.456;2023-07-16T19:39:28;5.78;;;2.60;;
17496;SDS011;62150;43.582;1.456;2023-07-16T19:41:55;7.50;;;3.03;;
17496;SDS011;62150;43.582;1.456;2023-07-16T19:44:25;7.15;;;3.10;;
17496;SDS011;62150;43.582;1.456;2023-07-16T19:46:54;7.20;;;3.03;;
17496;SDS011;62150;43.582;1.456;2023-07-16T19:49:21;6.35;;;2.75;;
17496;SDS011;62150;43.582;1.456;2023-07-16T19:51:50;8.35;;;3.10;;
17496;SDS011;62150;43.582;1.456;2023-07-16T19:54:18;6.18;;;2.90;;
17496;SDS011;62150;43.582;1.456;2023-07-16T19:56:45;6.80;;;2.97;;
17496;SDS011;62150;43.582;1.456;2023-07-16T19:59:13;7.03;;;2.78;;
17496;SDS011;62150;43.582;1.456;2023-07-16T20:01:41;5.72;;;2.78;;
17496;SDS011;62150;43.582;1.456;2023-07-16T20:04:10;6.32;;;2.75;;
17496;SDS011;62150;43.582;1.456;2023-07-16T20:06:37;8.23;;;2.92;;
17496;SDS011;62150;43.582;1.456;2023-07-16T20:09:06;7.55;;;3.15;;
17496;SDS011;62150;43.582;1.456;2023-07-16T20:11:34;6.30;;;2.70;;